Time;durP1;ratioP1;P1;durP2;ratioP2;P2;SDS_P1;SDS_P2;PMS_P1;PMS_P2;Temp;Humidity;BMP_temperature;BMP_pressure;BME280_temperature;BME280_humidity;BME280_pressure;Samples;Min_cycle;Max_cycle;Signal;HPM_P1;HPM_P2
2021/03/25 00:01:38;;;;;;;45.50;26.20;;;;;7.10;101588.00;;;;9622154;30;20241;-76
2021/03/25 00:06:51;;;;;;;47.67;27.30;;;;;7.00;101582.00;;;;9587060;30;20225;-76
2021/03/25 00:11:52;;;;;;;50.70;29.33;;;;;7.00;101586.00;;;;9600604;30;20213;-76
2021/03/25 00:16:54;;;;;;;49.60;28.60;;;;;7.10;101577.00;;;;9600548;30;20194;-76
2021/03/25 00:21:56;;;;;;;49.87;29.67;;;;;7.10;101571.00;;;;9600578;30;20205;-76
2021/03/25 00:26:57;;;;;;;52.13;28.93;;;;;7.10;101568.00;;;;9600120;30;20221;-76
2021/03/25 00:31:59;;;;;;;45.03;28.47;;;;;7.00;101570.00;;;;9580356;30;20217;-76
2021/03/25 00:37:00;;;;;;;53.63;27.93;;;;;7.00;101568.00;;;;9607346;30;20265;-76
2021/03/25 00:42:02;;;;;;;54.70;29.87;;;;;6.90;101573.00;;;;9620446;30;20295;-76
2021/03/25 00:47:04;;;;;;;49.10;28.60;;;;;6.90;101568.00;;;;9606922;30;20213;-76
2021/03/25 00:52:05;;;;;;;53.80;28.53;;;;;7.00;101568.00;;;;9606358;30;20208;-76
2021/03/25 00:57:11;;;;;;;49.03;27.87;;;;;7.10;101551.00;;;;9620519;30;20320;-76
2021/03/25 01:02:13;;;;;;;46.73;27.53;;;;;7.20;101555.00;;;;9620253;30;20296;-76
2021/03/25 01:07:28;;;;;;;50.10;27.83;;;;;7.30;101555.00;;;;9606092;30;20633;-76
2021/03/25 01:12:29;;;;;;;51.40;29.73;;;;;7.40;101544.00;;;;9620227;30;20570;-76
2021/03/25 01:17:30;;;;;;;49.07;29.43;;;;;7.50;101532.00;;;;9620702;30;20248;-76
2021/03/25 01:22:32;;;;;;;48.93;29.23;;;;;7.50;101540.00;;;;9605887;30;20208;-76
2021/03/25 01:27:34;;;;;;;49.90;28.00;;;;;7.50;101529.00;;;;9577016;30;20263;-76
2021/03/25 01:32:35;;;;;;;53.03;29.07;;;;;7.60;101527.00;;;;9618444;30;20209;-76
2021/03/25 01:37:42;;;;;;;51.30;30.07;;;;;7.60;101540.00;;;;9618726;30;20205;-76
2021/03/25 01:42:44;;;;;;;51.10;29.93;;;;;7.70;101533.00;;;;9604270;30;20213;-76
2021/03/25 01:47:46;;;;;;;57.60;32.20;;;;;7.70;101519.00;;;;9604343;30;21115;-76
2021/03/25 01:52:50;;;;;;;58.97;32.50;;;;;7.80;101527.00;;;;9618729;30;20209;-76
2021/03/25 01:57:55;;;;;;;62.77;35.57;;;;;7.80;101528.00;;;;9590933;30;20233;-76
2021/03/25 02:03:34;;;;;;;61.63;36.20;;;;;7.90;101541.00;;;;9603856;30;20213;-75
2021/03/25 02:08:49;;;;;;;57.37;34.33;;;;;7.90;101534.00;;;;9617787;30;20227;-76
2021/03/25 02:14:09;;;;;;;67.67;36.43;;;;;7.80;101545.00;;;;9617692;30;20209;-75
2021/03/25 02:19:33;;;;;;;57.13;30.50;;;;;7.90;101544.00;;;;9617669;30;20658;-76
2021/03/25 02:24:58;;;;;;;49.20;30.30;;;;;7.90;101535.00;;;;9616620;30;20264;-76
2021/03/25 02:30:46;;;;;;;64.23;31.67;;;;;7.90;101536.00;;;;9618738;30;20778;-76
2021/03/25 02:35:56;;;;;;;60.33;31.80;;;;;7.90;101539.00;;;;9599610;30;20223;-75
2021/03/25 02:41:03;;;;;;;53.17;31.00;;;;;7.90;101544.00;;;;9602802;30;20802;-76
2021/03/25 02:46:13;;;;;;;51.67;31.13;;;;;7.90;101548.00;;;;9602974;30;20750;-75
2021/03/25 02:51:21;;;;;;;51.40;28.77;;;;;8.00;101549.00;;;;9616833;30;20205;-75
2021/03/25 02:56:29;;;;;;;45.37;27.70;;;;;8.00;101549.00;;;;9602434;30;20209;-75
2021/03/25 03:01:38;;;;;;;48.80;27.50;;;;;8.00;101554.00;;;;9617380;30;20240;-75
2021/03/25 03:07:16;;;;;;;48.77;27.63;;;;;8.10;101551.00;;;;9604909;30;20225;-76
2021/03/25 03:12:32;;;;;;;49.13;26.57;;;;;8.10;101550.00;;;;9610585;30;20217;-75
2021/03/25 03:17:42;;;;;;;39.00;22.33;;;;;8.10;101549.00;;;;9602354;30;20210;-76
2021/03/25 03:23:16;;;;;;;37.63;22.07;;;;;8.10;101541.00;;;;9594757;30;20211;-76
2021/03/25 03:28:24;;;;;;;34.53;22.47;;;;;8.10;101535.00;;;;9630417;30;20232;-75
2021/03/25 03:33:32;;;;;;;36.63;21.67;;;;;8.10;101537.00;;;;9615717;30;20828;-76
2021/03/25 03:38:43;;;;;;;38.90;22.10;;;;;8.10;101532.00;;;;9615872;30;20209;-75
2021/03/25 03:43:59;;;;;;;43.13;23.97;;;;;8.10;101531.00;;;;9615425;30;20236;-76
2021/03/25 03:49:11;;;;;;;39.10;23.37;;;;;8.20;101527.00;;;;9602618;30;20284;-76
2021/03/25 03:54:15;;;;;;;45.77;22.73;;;;;8.20;101513.00;;;;9614511;30;20768;-75
2021/03/25 03:59:24;;;;;;;42.93;22.80;;;;;8.20;101519.00;;;;9607606;30;20303;-76
2021/03/25 04:04:33;;;;;;;39.80;22.93;;;;;8.20;101512.00;;;;9608250;30;20221;-76
2021/03/25 04:09:51;;;;;;;37.53;21.57;;;;;8.30;101502.00;;;;9623390;30;20205;-76
2021/03/25 04:15:19;;;;;;;47.97;21.20;;;;;8.20;101513.00;;;;9621734;30;20288;-76
2021/03/25 04:20:27;;;;;;;43.63;23.43;;;;;8.20;101506.00;;;;9607476;30;20272;-76
2021/03/25 04:26:11;;;;;;;38.20;22.03;;;;;8.10;101498.00;;;;9614721;30;20229;-76
2021/03/25 04:31:12;;;;;;;43.47;23.00;;;;;8.10;101506.00;;;;9621384;30;20347;-76
2021/03/25 04:36:19;;;;;;;42.07;24.33;;;;;8.10;101511.00;;;;9620844;30;20264;-76
2021/03/25 04:41:20;;;;;;;40.70;24.53;;;;;8.10;101513.00;;;;9620926;30;20236;-76
2021/03/25 04:47:06;;;;;;;40.73;24.50;;;;;8.00;101521.00;;;;9620868;30;20284;-76
2021/03/25 04:52:24;;;;;;;44.50;24.93;;;;;8.00;101521.00;;;;9562241;30;20224;-76
2021/03/25 04:57:35;;;;;;;40.63;24.33;;;;;7.90;101523.00;;;;9606032;30;20237;-76
2021/03/25 05:02:38;;;;;;;36.30;23.20;;;;;7.80;101528.00;;;;9578709;30;20308;-75
2021/03/25 05:07:40;;;;;;;38.87;22.10;;;;;7.70;101521.00;;;;9620367;30;20240;-75
2021/03/25 05:12:42;;;;;;;36.53;21.33;;;;;7.70;101534.00;;;;9606373;30;20217;-76
2021/03/25 05:17:50;;;;;;;41.83;22.73;;;;;7.60;101528.00;;;;9633573;30;20725;-76
2021/03/25 05:22:59;;;;;;;36.03;22.10;;;;;7.60;101544.00;;;;9620547;30;20868;-76
2021/03/25 05:28:12;;;;;;;41.87;23.17;;;;;7.60;101541.00;;;;9619911;30;20695;-76
2021/03/25 05:33:17;;;;;;;37.00;22.00;;;;;7.60;101542.00;;;;9605099;30;20205;-76
2021/03/25 05:38:20;;;;;;;40.37;23.40;;;;;7.70;101533.00;;;;9604778;30;20690;-76
2021/03/25 05:43:41;;;;;;;41.53;23.90;;;;;7.80;101552.00;;;;9618655;30;21036;-76
2021/03/25 05:49:24;;;;;;;37.63;22.83;;;;;8.00;101559.00;;;;9590981;30;20228;-75
2021/03/25 05:54:38;;;;;;;34.03;21.30;;;;;8.10;101567.00;;;;9576586;30;20263;-75
2021/03/25 05:59:51;;;;;;;44.87;23.27;;;;;8.20;101546.00;;;;9619310;30;20288;-75
2021/03/25 06:04:53;;;;;;;41.80;22.83;;;;;8.20;101558.00;;;;9618148;30;20290;-76
2021/03/25 06:10:20;;;;;;;41.43;23.33;;;;;8.30;101564.00;;;;9617377;30;20609;-75
2021/03/25 06:15:33;;;;;;;42.90;21.07;;;;;8.40;101581.00;;;;9617601;30;20205;-76
2021/03/25 06:20:46;;;;;;;42.27;21.43;;;;;8.50;101578.00;;;;9617460;30;20205;-76
2021/03/25 06:26:14;;;;;;;38.10;21.67;;;;;8.60;101577.00;;;;9590142;30;20228;-76
2021/03/25 06:31:21;;;;;;;39.77;21.30;;;;;8.70;101575.00;;;;9589814;30;20205;-76
2021/03/25 06:36:41;;;;;;;35.73;21.30;;;;;8.90;101588.00;;;;9589295;30;20201;-76
2021/03/25 06:41:52;;;;;;;35.03;22.50;;;;;9.00;101590.00;;;;9582894;30;20222;-76
2021/03/25 06:47:04;;;;;;;37.73;23.27;;;;;9.10;101589.00;;;;9616508;30;20288;-76
2021/03/25 06:52:18;;;;;;;36.67;21.77;;;;;9.20;101589.00;;;;9627204;30;20213;-76
2021/03/25 06:57:22;;;;;;;35.87;22.27;;;;;9.40;101592.00;;;;9589979;30;20343;-76
2021/03/25 07:02:32;;;;;;;39.50;21.97;;;;;9.70;101598.00;;;;9607795;30;20205;-76
2021/03/25 07:07:41;;;;;;;40.03;21.40;;;;;9.90;101597.00;;;;9617453;30;20233;-76
2021/03/25 07:12:46;;;;;;;34.50;20.57;;;;;9.90;101595.00;;;;9592591;30;20213;-76
2021/03/25 07:18:25;;;;;;;36.03;20.50;;;;;9.80;101602.00;;;;9591111;30;20205;-75
2021/03/25 07:23:26;;;;;;;35.40;20.37;;;;;10.00;101607.00;;;;9614002;30;20618;-76
2021/03/25 07:28:27;;;;;;;36.67;19.83;;;;;10.40;101595.00;;;;9601663;30;20225;-76
2021/03/25 07:33:38;;;;;;;34.90;20.80;;;;;10.60;101605.00;;;;9598554;30;20594;-76
2021/03/25 07:38:42;;;;;;;35.57;20.00;;;;;10.80;101601.00;;;;9599675;30;20745;-76
2021/03/25 07:43:55;;;;;;;30.73;19.73;;;;;11.00;101606.00;;;;9630745;30;20253;-76
2021/03/25 07:49:01;;;;;;;33.50;18.17;;;;;11.10;101606.00;;;;9625133;30;20254;-76
2021/03/25 07:54:29;;;;;;;30.27;19.00;;;;;11.50;101626.00;;;;9620248;30;20220;-76
2021/03/25 07:59:51;;;;;;;34.93;20.00;;;;;11.10;101631.00;;;;9631775;30;20261;-76
2021/03/25 08:04:56;;;;;;;51.03;29.43;;;;;10.80;101630.00;;;;9644237;30;20232;-76
2021/03/25 08:09:58;;;;;;;33.63;20.53;;;;;11.00;101638.00;;;;9615236;30;20662;-76
2021/03/25 08:15:26;;;;;;;34.70;20.57;;;;;11.20;101631.00;;;;9643480;30;20967;-76
2021/03/25 08:20:42;;;;;;;28.80;20.07;;;;;11.30;101643.00;;;;9610027;30;20220;-76
2021/03/25 08:25:47;;;;;;;26.90;16.73;;;;;11.60;101638.00;;;;9623732;30;20220;-76
2021/03/25 08:31:12;;;;;;;26.97;16.30;;;;;12.00;101634.00;;;;9644941;30;20270;-76
2021/03/25 08:37:02;;;;;;;26.40;15.43;;;;;11.60;101647.00;;;;9616396;30;20205;-76
2021/03/25 08:42:12;;;;;;;24.43;14.43;;;;;11.70;101639.00;;;;9572275;30;20224;-76
2021/03/25 08:47:48;;;;;;;16.10;11.03;;;;;12.10;101634.00;;;;9643512;30;20228;-76
2021/03/25 08:52:51;;;;;;;19.33;11.47;;;;;12.50;101626.00;;;;9618024;30;20248;-76
2021/03/25 08:58:01;;;;;;;16.17;10.13;;;;;13.00;101628.00;;;;9609459;30;20236;-76
2021/03/25 09:03:17;;;;;;;20.53;12.30;;;;;13.60;101627.00;;;;9608275;30;20208;-77
2021/03/25 09:08:21;;;;;;;18.73;12.17;;;;;13.70;101630.00;;;;9617684;30;20219;-76
2021/03/25 09:13:41;;;;;;;19.20;13.10;;;;;13.50;101633.00;;;;9630191;30;20985;-76
2021/03/25 09:18:45;;;;;;;15.13;10.67;;;;;14.60;101616.00;;;;9598253;30;20231;-77
2021/03/25 09:23:58;;;;;;;17.93;12.67;;;;;15.10;101633.00;;;;9596859;30;20216;-77
2021/03/25 09:29:07;;;;;;;17.00;12.97;;;;;14.20;101634.00;;;;9590862;30;20308;-75
2021/03/25 09:34:11;;;;;;;21.57;12.77;;;;;13.30;101646.00;;;;9630536;30;20531;-75
2021/03/25 09:39:18;;;;;;;21.17;14.73;;;;;13.40;101650.00;;;;9611814;30;20911;-77
2021/03/25 09:44:28;;;;;;;18.53;13.47;;;;;13.30;101647.00;;;;9614577;30;20217;-75
2021/03/25 09:49:33;;;;;;;20.40;11.87;;;;;13.10;101646.00;;;;9611957;30;20278;-75
2021/03/25 09:55:08;;;;;;;15.47;10.40;;;;;12.50;101638.00;;;;9626366;30;20240;-77
2021/03/25 10:00:33;;;;;;;14.60;11.13;;;;;12.30;101640.00;;;;9605503;30;20741;-74
2021/03/25 10:05:41;;;;;;;12.10;9.53;;;;;12.60;101647.00;;;;9632239;30;20256;-75
2021/03/25 10:10:44;;;;;;;13.80;10.60;;;;;13.30;101642.00;;;;9627618;30;20209;-75
2021/03/25 10:16:02;;;;;;;12.50;8.43;;;;;14.40;101644.00;;;;9615518;30;20610;-75
2021/03/25 10:21:14;;;;;;;13.40;9.70;;;;;14.30;101645.00;;;;9610058;30;20221;-75
2021/03/25 10:26:34;;;;;;;10.60;9.07;;;;;13.90;101639.00;;;;9630054;30;20221;-75
2021/03/25 10:31:35;;;;;;;15.30;9.77;;;;;13.70;101646.00;;;;9603873;30;20260;-75
2021/03/25 10:37:06;;;;;;;12.40;9.47;;;;;13.90;101639.00;;;;9623274;30;20562;-75
2021/03/25 10:42:25;;;;;;;18.07;11.97;;;;;14.00;101638.00;;;;9577861;30;20280;-76
2021/03/25 10:47:31;;;;;;;16.17;11.40;;;;;13.60;101636.00;;;;9614451;30;20308;-76
2021/03/25 10:52:39;;;;;;;17.30;11.70;;;;;13.40;101638.00;;;;9630034;30;20622;-77
2021/03/25 10:57:46;;;;;;;16.87;12.90;;;;;14.70;101622.00;;;;9602201;30;571951;-77
2021/03/25 11:02:48;;;;;;;16.70;12.60;;;;;16.30;101626.00;;;;9603599;30;20217;-75
2021/03/25 11:07:56;;;;;;;16.27;12.30;;;;;15.60;101623.00;;;;9629541;30;20228;-76
2021/03/25 11:13:17;;;;;;;17.97;11.63;;;;;14.90;101623.00;;;;9621385;30;20847;-75
2021/03/25 11:18:23;;;;;;;15.53;12.30;;;;;15.00;101617.00;;;;9604056;30;20216;-76
2021/03/25 11:23:26;;;;;;;13.40;10.17;;;;;15.30;101621.00;;;;9638164;30;20225;-76
2021/03/25 11:28:35;;;;;;;15.20;11.20;;;;;15.40;101619.00;;;;9639933;30;20209;-76
2021/03/25 11:33:39;;;;;;;16.93;11.60;;;;;14.70;101618.00;;;;9606069;30;20213;-76
2021/03/25 11:38:43;;;;;;;14.70;11.63;;;;;15.30;101612.00;;;;9625259;30;20201;-76
2021/03/25 11:43:47;;;;;;;15.10;11.77;;;;;17.00;101598.00;;;;9624926;30;20201;-76
2021/03/25 11:49:18;;;;;;;16.97;10.50;;;;;17.50;101597.00;;;;9595889;30;20225;-76
2021/03/25 11:54:34;;;;;;;13.33;9.50;;;;;17.30;101595.00;;;;9623655;30;20205;-76
2021/03/25 11:59:39;;;;;;;11.60;7.97;;;;;16.40;101591.00;;;;9626199;30;20358;-76
2021/03/25 12:04:41;;;;;;;10.70;7.97;;;;;16.80;101596.00;;;;9621823;30;20212;-76
2021/03/25 12:10:04;;;;;;;12.67;9.40;;;;;17.40;101590.00;;;;9614591;30;20590;-76
2021/03/25 12:15:06;;;;;;;12.37;8.83;;;;;17.60;101589.00;;;;9622976;30;20260;-76
2021/03/25 12:20:09;;;;;;;8.57;7.60;;;;;17.10;101586.00;;;;9636078;30;20224;-76
2021/03/25 12:25:11;;;;;;;12.03;8.43;;;;;15.80;101588.00;;;;9635976;30;20271;-77
2021/03/25 12:30:13;;;;;;;11.13;7.37;;;;;15.10;101586.00;;;;9595615;30;20213;-75
2021/03/25 12:35:17;;;;;;;12.40;8.90;;;;;15.10;101572.00;;;;9634851;30;20201;-75
2021/03/25 12:40:21;;;;;;;10.23;7.90;;;;;15.50;101568.00;;;;9619045;30;20258;-75
2021/03/25 12:45:30;;;;;;;10.43;7.70;;;;;15.40;101575.00;;;;9599452;30;20221;-75
2021/03/25 12:50:33;;;;;;;12.03;8.30;;;;;15.30;101566.00;;;;9621965;30;20212;-75
2021/03/25 12:55:35;;;;;;;8.97;6.77;;;;;15.80;101567.00;;;;9618839;30;20205;-76
2021/03/25 13:00:39;;;;;;;10.97;6.50;;;;;17.10;101559.00;;;;9619190;30;20240;-76
2021/03/25 13:05:59;;;;;;;8.80;6.97;;;;;17.60;101554.00;;;;9620371;30;20221;-76
2021/03/25 13:11:02;;;;;;;8.27;7.20;;;;;16.90;101554.00;;;;9592268;30;20203;-76
2021/03/25 13:16:04;;;;;;;10.87;7.53;;;;;16.00;101562.00;;;;9620271;30;20256;-76
2021/03/25 13:21:07;;;;;;;10.80;8.00;;;;;15.60;101559.00;;;;9605262;30;20634;-76
2021/03/25 13:26:09;;;;;;;15.10;8.37;;;;;15.30;101553.00;;;;9604978;30;20221;-76
2021/03/25 13:31:13;;;;;;;12.30;8.50;;;;;15.20;101548.00;;;;9604722;30;20220;-76
2021/03/25 13:36:15;;;;;;;10.53;7.97;;;;;14.70;101550.00;;;;9623403;30;20236;-76
2021/03/25 13:41:16;;;;;;;9.93;8.90;;;;;14.60;101559.00;;;;9625620;30;20208;-76
2021/03/25 13:46:17;;;;;;;18.50;9.03;;;;;14.80;101557.00;;;;9639510;30;20799;-76
2021/03/25 13:51:25;;;;;;;11.20;8.60;;;;;14.70;101548.00;;;;9653622;30;20641;-76
2021/03/25 13:56:28;;;;;;;11.23;8.27;;;;;14.60;101540.00;;;;9638873;30;20204;-76
2021/03/25 14:01:29;;;;;;;13.47;8.07;;;;;14.30;101550.00;;;;9639018;30;20740;-76
2021/03/25 14:06:31;;;;;;;12.93;8.57;;;;;14.30;101540.00;;;;9639721;30;20611;-76
2021/03/25 14:11:33;;;;;;;11.13;8.97;;;;;14.90;101531.00;;;;9608728;30;20543;-76
2021/03/25 14:16:34;;;;;;;12.43;8.80;;;;;16.40;101538.00;;;;9603830;30;20300;-76
2021/03/25 14:21:35;;;;;;;12.77;9.27;;;;;16.70;101535.00;;;;9603536;30;20212;-76
2021/03/25 14:26:37;;;;;;;12.13;8.37;;;;;16.80;101529.00;;;;9603198;30;20225;-76
2021/03/25 14:31:38;;;;;;;9.67;8.00;;;;;16.50;101539.00;;;;9603723;30;20205;-76
2021/03/25 14:36:40;;;;;;;12.40;8.17;;;;;16.60;101532.00;;;;9617402;30;20252;-76
2021/03/25 14:41:41;;;;;;;14.27;7.93;;;;;16.50;101531.00;;;;9617541;30;20208;-76
2021/03/25 14:46:42;;;;;;;11.87;8.30;;;;;16.60;101523.00;;;;9617724;30;20278;-76
2021/03/25 14:51:44;;;;;;;11.77;9.07;;;;;16.40;101517.00;;;;9603532;30;20209;-76
2021/03/25 14:56:47;;;;;;;11.47;8.37;;;;;16.00;101528.00;;;;9629888;30;20241;-76
2021/03/25 15:01:48;;;;;;;9.63;8.43;;;;;15.70;101521.00;;;;9631107;30;20272;-76
2021/03/25 15:06:50;;;;;;;9.50;8.53;;;;;15.50;101525.00;;;;9588720;30;20734;-76
2021/03/25 15:11:51;;;;;;;10.27;8.07;;;;;15.60;101515.00;;;;9602943;30;20219;-76
2021/03/25 15:16:53;;;;;;;10.53;9.10;;;;;15.80;101520.00;;;;9616635;30;20875;-76
2021/03/25 15:21:56;;;;;;;13.47;9.83;;;;;15.70;101510.00;;;;9601911;30;20689;-76
2021/03/25 15:26:57;;;;;;;12.37;9.60;;;;;15.90;101509.00;;;;9601723;30;20337;-76
2021/03/25 15:31:58;;;;;;;12.43;9.50;;;;;15.80;101505.00;;;;9602262;30;20241;-76
2021/03/25 15:37:00;;;;;;;10.57;9.43;;;;;15.70;101502.00;;;;9601906;30;20224;-76
2021/03/25 15:42:02;;;;;;;9.87;8.37;;;;;15.70;101501.00;;;;9588177;30;20662;-76
2021/03/25 15:47:03;;;;;;;11.43;8.83;;;;;15.60;101504.00;;;;9616462;30;20585;-76
2021/03/25 15:52:05;;;;;;;13.10;8.67;;;;;15.90;101498.00;;;;9604236;30;20213;-76
2021/03/25 15:57:07;;;;;;;11.10;9.70;;;;;16.30;101498.00;;;;9608026;30;20686;-76
2021/03/25 16:02:12;;;;;;;10.13;8.97;;;;;16.80;101490.00;;;;9608554;30;20220;-76
2021/03/25 16:07:14;;;;;;;11.47;8.37;;;;;17.00;101494.00;;;;9623478;30;20272;-76
2021/03/25 16:12:16;;;;;;;11.67;8.87;;;;;16.70;101495.00;;;;9622296;30;20244;-76
2021/03/25 16:17:17;;;;;;;13.37;10.07;;;;;16.00;101499.00;;;;9621537;30;20206;-76
2021/03/25 16:22:20;;;;;;;10.47;9.03;;;;;15.30;101494.00;;;;9621366;30;20201;-76
2021/03/25 16:27:21;;;;;;;13.40;8.73;;;;;15.10;101491.00;;;;9606960;30;20714;-76
2021/03/25 16:32:22;;;;;;;12.93;9.10;;;;;15.20;101490.00;;;;9622841;30;20215;-76
2021/03/25 16:37:24;;;;;;;11.20;8.30;;;;;15.10;101494.00;;;;9635561;30;20582;-76
2021/03/25 16:42:25;;;;;;;10.00;9.00;;;;;14.90;101494.00;;;;9584896;30;20544;-76
2021/03/25 16:47:26;;;;;;;9.30;8.17;;;;;14.80;101502.00;;;;9599288;30;20221;-76
2021/03/25 16:52:28;;;;;;;12.13;8.97;;;;;14.50;101498.00;;;;9585812;30;20309;-76
2021/03/25 16:57:30;;;;;;;13.33;8.80;;;;;14.30;101498.00;;;;9599294;30;20240;-76
2021/03/25 17:02:46;;;;;;;14.57;9.37;;;;;14.10;101493.00;;;;9600446;30;20200;-76
2021/03/25 17:07:48;;;;;;;13.27;8.33;;;;;13.90;101495.00;;;;9618996;30;20229;-76
2021/03/25 17:12:50;;;;;;;12.13;8.73;;;;;13.70;101488.00;;;;9610514;30;20228;-76
2021/03/25 17:17:51;;;;;;;11.67;8.33;;;;;13.40;101486.00;;;;9576983;31;20285;-76
2021/03/25 17:22:53;;;;;;;14.03;8.63;;;;;13.30;101496.00;;;;9584821;31;20197;-76
2021/03/25 17:27:57;;;;;;;11.07;7.37;;;;;13.10;101486.00;;;;9598314;30;20768;-77
2021/03/25 17:32:58;;;;;;;13.90;8.23;;;;;12.90;101486.00;;;;9613171;30;20206;-76
2021/03/25 17:38:02;;;;;;;15.07;8.43;;;;;12.70;101497.00;;;;9583260;31;20206;-76
2021/03/25 17:43:04;;;;;;;10.43;6.70;;;;;12.50;101489.00;;;;9609011;30;20221;-76
2021/03/25 17:48:07;;;;;;;11.53;8.00;;;;;12.30;101502.00;;;;9628965;30;20258;-76
2021/03/25 17:53:09;;;;;;;12.30;8.57;;;;;12.20;101497.00;;;;9617754;30;20208;-75
2021/03/25 17:58:11;;;;;;;15.93;10.57;;;;;12.10;101498.00;;;;9632300;30;20236;-76
2021/03/25 18:03:19;;;;;;;13.20;10.17;;;;;12.00;101499.00;;;;9583387;30;20209;-76
2021/03/25 18:08:25;;;;;;;13.53;9.00;;;;;11.90;101511.00;;;;9631295;30;20228;-76
2021/03/25 18:13:30;;;;;;;13.37;9.77;;;;;11.80;101516.00;;;;9605841;30;20259;-76
2021/03/25 18:18:43;;;;;;;13.73;10.20;;;;;11.50;101519.00;;;;9609152;30;20199;-76
2021/03/25 18:23:45;;;;;;;16.47;10.67;;;;;11.30;101504.00;;;;9624244;30;20214;-76
2021/03/25 18:28:46;;;;;;;14.47;9.27;;;;;11.20;101513.00;;;;9606018;30;20224;-76
2021/03/25 18:33:48;;;;;;;16.10;8.73;;;;;11.10;101518.00;;;;9607223;30;20221;-76
2021/03/25 18:38:51;;;;;;;17.00;8.60;;;;;11.10;101513.00;;;;9618418;30;20209;-76
2021/03/25 18:43:52;;;;;;;12.70;8.87;;;;;10.90;101530.00;;;;9622079;30;20256;-76
2021/03/25 18:48:54;;;;;;;14.83;9.87;;;;;10.70;101529.00;;;;9625101;30;20221;-76
2021/03/25 18:53:58;;;;;;;13.93;8.93;;;;;10.70;101530.00;;;;9627177;30;20212;-76
2021/03/25 18:59:01;;;;;;;13.13;8.70;;;;;10.60;101538.00;;;;9643286;30;20745;-76
2021/03/25 19:04:03;;;;;;;13.00;9.40;;;;;10.60;101537.00;;;;9597647;30;20213;-76
2021/03/25 19:09:04;;;;;;;15.10;9.90;;;;;10.50;101535.00;;;;9598432;30;20698;-76
2021/03/25 19:14:06;;;;;;;13.27;9.90;;;;;10.30;101534.00;;;;9634836;30;20273;-76
2021/03/25 19:19:08;;;;;;;17.47;10.87;;;;;10.20;101536.00;;;;9621603;30;20239;-76
2021/03/25 19:24:09;;;;;;;17.27;10.70;;;;;10.10;101542.00;;;;9613068;30;20205;-76
2021/03/25 19:29:11;;;;;;;14.63;10.43;;;;;9.90;101537.00;;;;9625014;30;20255;-76
2021/03/25 19:34:12;;;;;;;16.63;10.93;;;;;9.70;101539.00;;;;9599710;30;20236;-76
2021/03/25 19:39:13;;;;;;;20.23;11.93;;;;;9.60;101549.00;;;;9644252;30;20740;-76
2021/03/25 19:44:15;;;;;;;16.03;10.33;;;;;9.50;101567.00;;;;9615760;30;20217;-77
2021/03/25 19:49:16;;;;;;;13.93;10.40;;;;;9.40;101559.00;;;;9623652;30;20224;-76
2021/03/25 19:54:21;;;;;;;18.23;11.27;;;;;9.30;101559.00;;;;9602211;30;20257;-76
2021/03/25 19:59:23;;;;;;;18.30;11.67;;;;;9.20;101564.00;;;;9638901;30;20259;-76
2021/03/25 20:04:24;;;;;;;19.13;12.23;;;;;9.10;101553.00;;;;9626108;30;20266;-77
2021/03/25 20:09:29;;;;;;;18.90;11.67;;;;;9.00;101557.00;;;;9635441;30;20250;-77
2021/03/25 20:14:32;;;;;;;17.17;11.60;;;;;9.00;101564.00;;;;9608085;30;20225;-77
2021/03/25 20:19:33;;;;;;;17.00;11.97;;;;;8.90;101557.00;;;;9619022;30;20205;-76
2021/03/25 20:24:35;;;;;;;21.03;12.17;;;;;8.80;101555.00;;;;9623707;30;20216;-76
2021/03/25 20:29:36;;;;;;;17.83;12.00;;;;;8.80;101572.00;;;;9637476;30;20225;-76
2021/03/25 20:34:38;;;;;;;21.63;12.70;;;;;8.70;101569.00;;;;9625726;30;20275;-78
2021/03/25 20:39:40;;;;;;;20.60;13.23;;;;;8.60;101566.00;;;;9629515;30;20713;-76
2021/03/25 20:44:44;;;;;;;26.20;13.57;;;;;8.50;101566.00;;;;9593203;30;20216;-76
2021/03/25 20:49:45;;;;;;;21.03;13.13;;;;;8.40;101565.00;;;;9626086;30;20209;-76
2021/03/25 20:54:47;;;;;;;23.13;13.73;;;;;8.30;101573.00;;;;9620595;30;20657;-76
2021/03/25 20:59:48;;;;;;;23.03;14.50;;;;;8.30;101566.00;;;;9586786;30;20261;-76
2021/03/25 21:04:50;;;;;;;21.10;14.47;;;;;8.20;101572.00;;;;9597527;30;20213;-76
2021/03/25 21:09:52;;;;;;;19.83;13.07;;;;;8.20;101571.00;;;;9612467;30;20269;-76
2021/03/25 21:14:54;;;;;;;23.67;14.50;;;;;8.10;101566.00;;;;9616350;30;20331;-76
2021/03/25 21:19:56;;;;;;;24.77;15.80;;;;;8.00;101569.00;;;;9618424;30;20205;-76
2021/03/25 21:24:58;;;;;;;20.27;14.33;;;;;7.90;101559.00;;;;9607641;30;20213;-76
2021/03/25 21:30:01;;;;;;;26.50;16.23;;;;;7.90;101556.00;;;;9622825;30;20280;-76
2021/03/25 21:35:06;;;;;;;28.43;16.37;;;;;7.90;101561.00;;;;9627954;30;20244;-76
2021/03/25 21:40:12;;;;;;;24.77;14.67;;;;;7.90;101555.00;;;;9609573;30;20228;-76
2021/03/25 21:45:32;;;;;;;23.87;16.20;;;;;7.80;101560.00;;;;9623783;30;20209;-76
2021/03/25 21:50:34;;;;;;;25.27;15.60;;;;;7.80;101552.00;;;;9600995;30;20205;-76
2021/03/25 21:55:35;;;;;;;22.17;15.37;;;;;7.80;101546.00;;;;9611037;30;20209;-76
2021/03/25 22:00:38;;;;;;;22.03;15.90;;;;;7.60;101538.00;;;;9628387;30;20236;-76
2021/03/25 22:05:39;;;;;;;26.20;15.13;;;;;7.60;101549.00;;;;9619060;30;20264;-76
2021/03/25 22:10:41;;;;;;;23.17;15.77;;;;;7.50;101546.00;;;;9617360;30;20216;-76
2021/03/25 22:15:42;;;;;;;20.70;15.17;;;;;7.40;101534.00;;;;9607976;30;20208;-76
2021/03/25 22:20:44;;;;;;;25.20;15.43;;;;;7.30;101536.00;;;;9622881;30;20217;-76
2021/03/25 22:25:46;;;;;;;27.70;16.43;;;;;7.20;101524.00;;;;9622357;30;20217;-76
2021/03/25 22:30:48;;;;;;;26.40;16.43;;;;;7.20;101536.00;;;;9619076;30;20619;-76
2021/03/25 22:35:50;;;;;;;22.97;16.10;;;;;7.10;101522.00;;;;9618040;30;20659;-76
2021/03/25 22:40:53;;;;;;;28.53;17.43;;;;;7.10;101527.00;;;;9615797;30;20236;-77
2021/03/25 22:45:57;;;;;;;27.83;17.87;;;;;7.00;101523.00;;;;9612375;30;20272;-76
2021/03/25 22:51:18;;;;;;;28.13;18.60;;;;;7.00;101513.00;;;;9640723;30;20959;-76
2021/03/25 22:56:20;;;;;;;26.60;17.97;;;;;7.10;101513.00;;;;9614406;30;20299;-76
2021/03/25 23:01:29;;;;;;;26.97;18.57;;;;;7.10;101499.00;;;;9628721;30;20205;-76
2021/03/25 23:06:40;;;;;;;26.93;18.77;;;;;7.20;101509.00;;;;9640523;30;20320;-76
2021/03/25 23:11:45;;;;;;;24.67;18.33;;;;;7.20;101504.00;;;;9634212;30;20208;-76
2021/03/25 23:16:48;;;;;;;27.90;20.80;;;;;7.30;101510.00;;;;9615789;30;20261;-76
2021/03/25 23:21:54;;;;;;;30.27;20.70;;;;;7.20;101500.00;;;;9607893;30;20216;-76
2021/03/25 23:26:56;;;;;;;30.23;20.60;;;;;7.10;101506.00;;;;9615828;30;20578;-76
2021/03/25 23:32:05;;;;;;;31.33;21.80;;;;;7.10;101503.00;;;;9594616;30;20216;-76
2021/03/25 23:37:08;;;;;;;31.90;21.37;;;;;7.10;101494.00;;;;9639471;30;20196;-76
2021/03/25 23:42:19;;;;;;;30.23;20.50;;;;;7.00;101494.00;;;;9614376;30;20562;-76
2021/03/25 23:47:22;;;;;;;29.83;20.93;;;;;7.00;101486.00;;;;9590741;30;20276;-76
2021/03/25 23:52:23;;;;;;;31.90;20.30;;;;;6.90;101475.00;;;;9630283;30;20292;-76
2021/03/25 23:57:25;;;;;;;32.40;20.67;;;;;6.90;101480.00;;;;9602762;30;20255;-75
